sensor_id;sensor_type;location;lat;lon;timestamp;temperature;humidity
3136;DHT22;1578;47.658;9.922;2023-08-01T00:02:21;17.00;73.10
3136;DHT22;1578;47.658;9.922;2023-08-01T00:04:47;17.00;72.90
3136;DHT22;1578;47.658;9.922;2023-08-01T00:07:12;16.90;73.80
3136;DHT22;1578;47.658;9.922;2023-08-01T00:09:38;16.90;73.70
3136;DHT22;1578;47.658;9.922;2023-08-01T00:12:04;16.80;74.40
3136;DHT22;1578;47.658;9.922;2023-08-01T00:14:30;16.80;76.30
3136;DHT22;1578;47.658;9.922;2023-08-01T00:16:55;16.90;75.00
3136;DHT22;1578;47.658;9.922;2023-08-01T00:19:21;16.90;74.00
3136;DHT22;1578;47.658;9.922;2023-08-01T00:21:47;16.80;72.20
3136;DHT22;1578;47.658;9.922;2023-08-01T00:24:12;16.90;74.00
3136;DHT22;1578;47.658;9.922;2023-08-01T00:26:38;16.80;74.30
3136;DHT22;1578;47.658;9.922;2023-08-01T00:29:04;16.70;74.50
3136;DHT22;1578;47.658;9.922;2023-08-01T00:31:29;16.70;75.80
3136;DHT22;1578;47.658;9.922;2023-08-01T00:33:55;16.70;74.00
3136;DHT22;1578;47.658;9.922;2023-08-01T00:36:21;16.90;72.80
3136;DHT22;1578;47.658;9.922;2023-08-01T00:38:46;16.80;72.40
3136;DHT22;1578;47.658;9.922;2023-08-01T00:41:12;16.90;70.10
3136;DHT22;1578;47.658;9.922;2023-08-01T00:43:38;16.80;69.50
3136;DHT22;1578;47.658;9.922;2023-08-01T00:46:05;16.80;71.50
3136;DHT22;1578;47.658;9.922;2023-08-01T00:48:32;16.70;73.90
3136;DHT22;1578;47.658;9.922;2023-08-01T00:51:03;16.70;75.10
3136;DHT22;1578;47.658;9.922;2023-08-01T00:53:29;16.60;75.90
3136;DHT22;1578;47.658;9.922;2023-08-01T00:55:56;16.70;75.10
3136;DHT22;1578;47.658;9.922;2023-08-01T00:58:22;16.80;75.10
3136;DHT22;1578;47.658;9.922;2023-08-01T01:00:47;16.80;76.10
3136;DHT22;1578;47.658;9.922;2023-08-01T01:03:14;16.80;74.70
3136;DHT22;1578;47.658;9.922;2023-08-01T01:05:46;16.70;75.00
3136;DHT22;1578;47.658;9.922;2023-08-01T01:08:13;16.60;77.60
3136;DHT22;1578;47.658;9.922;2023-08-01T01:10:39;16.70;75.90
3136;DHT22;1578;47.658;9.922;2023-08-01T01:13:05;16.70;76.00
3136;DHT22;1578;47.658;9.922;2023-08-01T01:15:30;16.70;76.00
3136;DHT22;1578;47.658;9.922;2023-08-01T01:17:56;16.60;75.90
3136;DHT22;1578;47.658;9.922;2023-08-01T01:20:24;16.50;75.90
3136;DHT22;1578;47.658;9.922;2023-08-01T01:22:52;16.50;75.90
3136;DHT22;1578;47.658;9.922;2023-08-01T01:25:20;16.50;76.70
3136;DHT22;1578;47.658;9.922;2023-08-01T01:27:49;16.50;76.70
3136;DHT22;1578;47.658;9.922;2023-08-01T01:30:15;16.60;74.20
3136;DHT22;1578;47.658;9.922;2023-08-01T01:32:41;16.60;73.90
3136;DHT22;1578;47.658;9.922;2023-08-01T01:35:07;16.60;73.20
3136;DHT22;1578;47.658;9.922;2023-08-01T01:37:33;16.60;75.90
3136;DHT22;1578;47.658;9.922;2023-08-01T01:39:58;16.60;74.70
3136;DHT22;1578;47.658;9.922;2023-08-01T01:42:24;16.50;76.80
3136;DHT22;1578;47.658;9.922;2023-08-01T01:44:49;16.60;75.90
3136;DHT22;1578;47.658;9.922;2023-08-01T01:47:15;16.60;74.40
3136;DHT22;1578;47.658;9.922;2023-08-01T01:49:40;16.60;75.10
3136;DHT22;1578;47.658;9.922;2023-08-01T01:52:06;16.60;74.20
3136;DHT22;1578;47.658;9.922;2023-08-01T01:54:32;16.70;71.90
3136;DHT22;1578;47.658;9.922;2023-08-01T01:56:57;16.70;72.90
3136;DHT22;1578;47.658;9.922;2023-08-01T01:59:23;16.80;72.20
3136;DHT22;1578;47.658;9.922;2023-08-01T02:01:48;17.00;71.70
3136;DHT22;1578;47.658;9.922;2023-08-01T02:04:14;17.10;71.30
3136;DHT22;1578;47.658;9.922;2023-08-01T02:06:39;17.00;70.30
3136;DHT22;1578;47.658;9.922;2023-08-01T02:09:07;16.90;70.50
3136;DHT22;1578;47.658;9.922;2023-08-01T02:11:32;16.90;71.60
3136;DHT22;1578;47.658;9.922;2023-08-01T02:13:58;16.90;72.00
3136;DHT22;1578;47.658;9.922;2023-08-01T02:16:26;16.90;73.70
3136;DHT22;1578;47.658;9.922;2023-08-01T02:18:51;16.90;73.30
3136;DHT22;1578;47.658;9.922;2023-08-01T02:21:17;16.80;72.90
3136;DHT22;1578;47.658;9.922;2023-08-01T02:23:43;16.80;74.40
3136;DHT22;1578;47.658;9.922;2023-08-01T02:26:08;16.90;74.60
3136;DHT22;1578;47.658;9.922;2023-08-01T02:28:34;16.90;73.50
3136;DHT22;1578;47.658;9.922;2023-08-01T02:30:59;16.90;73.00
3136;DHT22;1578;47.658;9.922;2023-08-01T02:33:26;16.80;73.60
3136;DHT22;1578;47.658;9.922;2023-08-01T02:35:52;16.70;74.30
3136;DHT22;1578;47.658;9.922;2023-08-01T02:38:17;16.70;73.50
3136;DHT22;1578;47.658;9.922;2023-08-01T02:40:43;16.80;73.80
3136;DHT22;1578;47.658;9.922;2023-08-01T02:43:09;16.90;72.70
3136;DHT22;1578;47.658;9.922;2023-08-01T02:45:34;16.80;72.20
3136;DHT22;1578;47.658;9.922;2023-08-01T02:48:00;16.80;72.90
3136;DHT22;1578;47.658;9.922;2023-08-01T02:50:25;16.70;72.90
3136;DHT22;1578;47.658;9.922;2023-08-01T02:52:51;16.70;72.40
3136;DHT22;1578;47.658;9.922;2023-08-01T02:55:16;16.70;72.90
3136;DHT22;1578;47.658;9.922;2023-08-01T02:57:43;16.70;71.90
3136;DHT22;1578;47.658;9.922;2023-08-01T03:00:08;16.80;72.70
3136;DHT22;1578;47.658;9.922;2023-08-01T03:02:37;17.00;71.70
3136;DHT22;1578;47.658;9.922;2023-08-01T03:05:06;16.90;71.60
3136;DHT22;1578;47.658;9.922;2023-08-01T03:07:31;16.80;73.20
3136;DHT22;1578;47.658;9.922;2023-08-01T03:09:57;16.70;76.00
3136;DHT22;1578;47.658;9.922;2023-08-01T03:12:22;16.60;77.80
3136;DHT22;1578;47.658;9.922;2023-08-01T03:14:48;16.70;76.70
3136;DHT22;1578;47.658;9.922;2023-08-01T03:17:13;16.80;74.10
3136;DHT22;1578;47.658;9.922;2023-08-01T03:19:39;16.80;74.00
3136;DHT22;1578;47.658;9.922;2023-08-01T03:22:05;16.80;73.30
3136;DHT22;1578;47.658;9.922;2023-08-01T03:24:30;16.90;74.10
3136;DHT22;1578;47.658;9.922;2023-08-01T03:26:56;16.80;74.70
3136;DHT22;1578;47.658;9.922;2023-08-01T03:29:21;16.80;74.40
3136;DHT22;1578;47.658;9.922;2023-08-01T03:31:47;16.90;74.20
3136;DHT22;1578;47.658;9.922;2023-08-01T03:34:13;16.90;74.10
3136;DHT22;1578;47.658;9.922;2023-08-01T03:36:38;16.90;73.90
3136;DHT22;1578;47.658;9.922;2023-08-01T03:39:04;16.90;74.30
3136;DHT22;1578;47.658;9.922;2023-08-01T03:41:31;16.90;74.10
3136;DHT22;1578;47.658;9.922;2023-08-01T03:43:57;16.90;73.50
3136;DHT22;1578;47.658;9.922;2023-08-01T03:46:23;16.90;73.70
3136;DHT22;1578;47.658;9.922;2023-08-01T03:48:49;16.90;75.70
3136;DHT22;1578;47.658;9.922;2023-08-01T03:51:14;17.00;75.10
3136;DHT22;1578;47.658;9.922;2023-08-01T03:53:41;17.00;75.10
3136;DHT22;1578;47.658;9.922;2023-08-01T03:56:07;16.90;74.50
3136;DHT22;1578;47.658;9.922;2023-08-01T03:58:33;17.00;75.50
3136;DHT22;1578;47.658;9.922;2023-08-01T04:00:58;17.00;78.00
3136;DHT22;1578;47.658;9.922;2023-08-01T04:03:24;17.00;79.10
3136;DHT22;1578;47.658;9.922;2023-08-01T04:05:49;17.00;79.90
3136;DHT22;1578;47.658;9.922;2023-08-01T04:08:15;16.90;81.60
3136;DHT22;1578;47.658;9.922;2023-08-01T04:10:41;16.80;81.70
3136;DHT22;1578;47.658;9.922;2023-08-01T04:13:06;16.80;81.70
3136;DHT22;1578;47.658;9.922;2023-08-01T04:15:32;16.70;83.10
3136;DHT22;1578;47.658;9.922;2023-08-01T04:17:57;16.70;84.20
3136;DHT22;1578;47.658;9.922;2023-08-01T04:20:23;16.60;85.70
3136;DHT22;1578;47.658;9.922;2023-08-01T04:22:49;16.60;87.80
3136;DHT22;1578;47.658;9.922;2023-08-01T04:25:14;16.60;88.50
3136;DHT22;1578;47.658;9.922;2023-08-01T04:27:40;16.60;89.70
3136;DHT22;1578;47.658;9.922;2023-08-01T04:30:06;16.60;89.50
3136;DHT22;1578;47.658;9.922;2023-08-01T04:32:32;16.50;90.40
3136;DHT22;1578;47.658;9.922;2023-08-01T04:34:57;16.50;90.40
3136;DHT22;1578;47.658;9.922;2023-08-01T04:37:23;16.60;91.60
3136;DHT22;1578;47.658;9.922;2023-08-01T04:39:49;16.70;90.80
3136;DHT22;1578;47.658;9.922;2023-08-01T04:42:14;16.60;91.00
3136;DHT22;1578;47.658;9.922;2023-08-01T04:44:40;16.70;90.30
3136;DHT22;1578;47.658;9.922;2023-08-01T04:47:06;16.70;90.10
3136;DHT22;1578;47.658;9.922;2023-08-01T04:49:31;16.70;91.10
3136;DHT22;1578;47.658;9.922;2023-08-01T04:51:57;16.70;90.50
3136;DHT22;1578;47.658;9.922;2023-08-01T04:54:22;16.70;90.90
3136;DHT22;1578;47.658;9.922;2023-08-01T04:56:48;16.70;90.80
3136;DHT22;1578;47.658;9.922;2023-08-01T04:59:14;16.70;90.90
3136;DHT22;1578;47.658;9.922;2023-08-01T05:01:39;16.80;90.20
3136;DHT22;1578;47.658;9.922;2023-08-01T05:04:05;16.90;90.00
3136;DHT22;1578;47.658;9.922;2023-08-01T05:06:30;16.90;90.50
3136;DHT22;1578;47.658;9.922;2023-08-01T05:08:56;16.90;90.40
3136;DHT22;1578;47.658;9.922;2023-08-01T05:11:22;16.90;90.70
3136;DHT22;1578;47.658;9.922;2023-08-01T05:13:48;16.90;90.80
3136;DHT22;1578;47.658;9.922;2023-08-01T05:16:13;17.00;90.90
3136;DHT22;1578;47.658;9.922;2023-08-01T05:18:39;17.00;91.30
3136;DHT22;1578;47.658;9.922;2023-08-01T05:21:05;17.10;90.60
3136;DHT22;1578;47.658;9.922;2023-08-01T05:23:30;17.10;91.20
3136;DHT22;1578;47.658;9.922;2023-08-01T05:25:56;17.00;91.80
3136;DHT22;1578;47.658;9.922;2023-08-01T05:28:21;17.10;91.90
3136;DHT22;1578;47.658;9.922;2023-08-01T05:30:47;17.10;92.40
3136;DHT22;1578;47.658;9.922;2023-08-01T05:33:12;17.10;93.20
3136;DHT22;1578;47.658;9.922;2023-08-01T05:35:38;17.10;92.70
3136;DHT22;1578;47.658;9.922;2023-08-01T05:38:04;17.10;93.20
3136;DHT22;1578;47.658;9.922;2023-08-01T05:40:29;17.10;93.60
3136;DHT22;1578;47.658;9.922;2023-08-01T05:42:55;17.10;93.50
3136;DHT22;1578;47.658;9.922;2023-08-01T05:45:20;17.10;94.00
3136;DHT22;1578;47.658;9.922;2023-08-01T05:47:46;17.20;92.70
3136;DHT22;1578;47.658;9.922;2023-08-01T05:50:11;17.20;91.70
3136;DHT22;1578;47.658;9.922;2023-08-01T05:52:37;17.20;91.30
3136;DHT22;1578;47.658;9.922;2023-08-01T05:55:03;17.20;91.00
3136;DHT22;1578;47.658;9.922;2023-08-01T05:57:29;17.20;90.80
3136;DHT22;1578;47.658;9.922;2023-08-01T05:59:55;17.20;90.90
3136;DHT22;1578;47.658;9.922;2023-08-01T06:02:21;17.40;89.60
3136;DHT22;1578;47.658;9.922;2023-08-01T06:04:46;17.40;88.70
3136;DHT22;1578;47.658;9.922;2023-08-01T06:07:12;17.40;90.00
3136;DHT22;1578;47.658;9.922;2023-08-01T06:09:37;17.30;90.70
3136;DHT22;1578;47.658;9.922;2023-08-01T06:12:03;17.20;91.90
3136;DHT22;1578;47.658;9.922;2023-08-01T06:14:29;17.20;91.60
3136;DHT22;1578;47.658;9.922;2023-08-01T06:16:55;17.30;91.30
3136;DHT22;1578;47.658;9.922;2023-08-01T06:19:20;17.10;91.80
3136;DHT22;1578;47.658;9.922;2023-08-01T06:21:46;17.10;91.90
3136;DHT22;1578;47.658;9.922;2023-08-01T06:24:11;17.20;92.00
3136;DHT22;1578;47.658;9.922;2023-08-01T06:26:37;17.10;92.30
3136;DHT22;1578;47.658;9.922;2023-08-01T06:29:02;17.10;92.50
3136;DHT22;1578;47.658;9.922;2023-08-01T06:31:28;17.10;90.60
3136;DHT22;1578;47.658;9.922;2023-08-01T06:33:54;17.00;91.80
3136;DHT22;1578;47.658;9.922;2023-08-01T06:36:20;17.10;89.90
3136;DHT22;1578;47.658;9.922;2023-08-01T06:38:45;17.20;91.50
3136;DHT22;1578;47.658;9.922;2023-08-01T06:41:11;17.20;79.70
3136;DHT22;1578;47.658;9.922;2023-08-01T06:43:37;17.20;74.40
3136;DHT22;1578;47.658;9.922;2023-08-01T06:46:04;17.20;79.30
3136;DHT22;1578;47.658;9.922;2023-08-01T06:48:30;17.10;72.70
3136;DHT22;1578;47.658;9.922;2023-08-01T06:50:56;17.00;76.30
3136;DHT22;1578;47.658;9.922;2023-08-01T06:53:21;16.90;77.10
3136;DHT22;1578;47.658;9.922;2023-08-01T06:55:47;16.80;82.20
3136;DHT22;1578;47.658;9.922;2023-08-01T06:58:13;16.90;85.30
3136;DHT22;1578;47.658;9.922;2023-08-01T07:00:38;16.90;78.30
3136;DHT22;1578;47.658;9.922;2023-08-01T07:03:04;16.80;78.80
3136;DHT22;1578;47.658;9.922;2023-08-01T07:05:29;16.70;83.70
3136;DHT22;1578;47.658;9.922;2023-08-01T07:07:55;16.70;86.00
3136;DHT22;1578;47.658;9.922;2023-08-01T07:10:21;16.70;88.60
3136;DHT22;1578;47.658;9.922;2023-08-01T07:12:47;16.80;90.50
3136;DHT22;1578;47.658;9.922;2023-08-01T07:15:14;16.80;81.90
3136;DHT22;1578;47.658;9.922;2023-08-01T07:17:39;16.80;86.00
3136;DHT22;1578;47.658;9.922;2023-08-01T07:20:05;16.70;89.50
3136;DHT22;1578;47.658;9.922;2023-08-01T07:22:31;16.80;90.50
3136;DHT22;1578;47.658;9.922;2023-08-01T07:24:56;16.80;91.00
3136;DHT22;1578;47.658;9.922;2023-08-01T07:27:22;16.70;87.10
3136;DHT22;1578;47.658;9.922;2023-08-01T07:29:47;16.70;91.30
3136;DHT22;1578;47.658;9.922;2023-08-01T07:32:14;16.80;91.80
3136;DHT22;1578;47.658;9.922;2023-08-01T07:34:40;16.90;90.60
3136;DHT22;1578;47.658;9.922;2023-08-01T07:37:05;16.90;90.80
3136;DHT22;1578;47.658;9.922;2023-08-01T07:39:31;16.90;91.20
3136;DHT22;1578;47.658;9.922;2023-08-01T07:41:57;16.90;91.80
3136;DHT22;1578;47.658;9.922;2023-08-01T07:44:22;17.00;89.90
3136;DHT22;1578;47.658;9.922;2023-08-01T07:46:48;17.10;90.40
3136;DHT22;1578;47.658;9.922;2023-08-01T07:49:14;17.10;88.10
3136;DHT22;1578;47.658;9.922;2023-08-01T07:51:39;17.00;89.00
3136;DHT22;1578;47.658;9.922;2023-08-01T07:54:05;17.00;89.80
3136;DHT22;1578;47.658;9.922;2023-08-01T07:56:30;17.00;88.30
3136;DHT22;1578;47.658;9.922;2023-08-01T07:58:56;16.90;90.80
3136;DHT22;1578;47.658;9.922;2023-08-01T08:01:21;16.80;92.30
3136;DHT22;1578;47.658;9.922;2023-08-01T08:03:47;16.90;91.10
3136;DHT22;1578;47.658;9.922;2023-08-01T08:06:13;16.80;92.80
3136;DHT22;1578;47.658;9.922;2023-08-01T08:08:39;16.90;92.80
3136;DHT22;1578;47.658;9.922;2023-08-01T08:11:04;17.00;92.70
3136;DHT22;1578;47.658;9.922;2023-08-01T08:13:30;17.00;93.70
3136;DHT22;1578;47.658;9.922;2023-08-01T08:15:56;17.20;93.90
3136;DHT22;1578;47.658;9.922;2023-08-01T08:18:26;17.40;93.30
3136;DHT22;1578;47.658;9.922;2023-08-01T08:20:52;17.60;92.10
3136;DHT22;1578;47.658;9.922;2023-08-01T08:23:17;17.70;89.40
3136;DHT22;1578;47.658;9.922;2023-08-01T08:25:44;17.80;88.30
3136;DHT22;1578;47.658;9.922;2023-08-01T08:28:12;17.90;83.20
3136;DHT22;1578;47.658;9.922;2023-08-01T08:30:38;17.90;85.60
3136;DHT22;1578;47.658;9.922;2023-08-01T08:33:04;18.10;79.70
3136;DHT22;1578;47.658;9.922;2023-08-01T08:35:32;18.20;83.80
3136;DHT22;1578;47.658;9.922;2023-08-01T08:38:01;18.10;87.40
3136;DHT22;1578;47.658;9.922;2023-08-01T08:40:27;18.20;78.00
3136;DHT22;1578;47.658;9.922;2023-08-01T08:42:53;18.20;76.70
3136;DHT22;1578;47.658;9.922;2023-08-01T08:45:20;18.30;82.90
3136;DHT22;1578;47.658;9.922;2023-08-01T08:47:55;18.30;82.40
3136;DHT22;1578;47.658;9.922;2023-08-01T08:50:21;18.20;78.20
3136;DHT22;1578;47.658;9.922;2023-08-01T08:52:46;18.30;72.00
3136;DHT22;1578;47.658;9.922;2023-08-01T08:55:12;18.20;84.10
3136;DHT22;1578;47.658;9.922;2023-08-01T08:57:38;18.20;63.30
3136;DHT22;1578;47.658;9.922;2023-08-01T09:00:05;18.00;70.00
3136;DHT22;1578;47.658;9.922;2023-08-01T09:02:32;17.90;63.10
3136;DHT22;1578;47.658;9.922;2023-08-01T09:04:58;17.90;66.70
3136;DHT22;1578;47.658;9.922;2023-08-01T09:07:29;17.90;70.20
3136;DHT22;1578;47.658;9.922;2023-08-01T09:09:56;18.00;63.70
3136;DHT22;1578;47.658;9.922;2023-08-01T09:12:21;18.10;72.40
3136;DHT22;1578;47.658;9.922;2023-08-01T09:14:50;18.20;68.10
3136;DHT22;1578;47.658;9.922;2023-08-01T09:17:16;18.10;68.00
3136;DHT22;1578;47.658;9.922;2023-08-01T09:19:44;18.10;66.30
3136;DHT22;1578;47.658;9.922;2023-08-01T09:22:13;18.20;71.60
3136;DHT22;1578;47.658;9.922;2023-08-01T09:24:49;18.30;71.30
3136;DHT22;1578;47.658;9.922;2023-08-01T09:27:15;18.20;67.00
3136;DHT22;1578;47.658;9.922;2023-08-01T09:29:41;18.00;67.90
3136;DHT22;1578;47.658;9.922;2023-08-01T09:32:13;17.70;71.20
3136;DHT22;1578;47.658;9.922;2023-08-01T09:34:40;17.60;70.40
3136;DHT22;1578;47.658;9.922;2023-08-01T09:37:06;17.40;71.90
3136;DHT22;1578;47.658;9.922;2023-08-01T09:39:31;17.20;76.50
3136;DHT22;1578;47.658;9.922;2023-08-01T09:41:58;17.10;74.80
3136;DHT22;1578;47.658;9.922;2023-08-01T09:44:25;17.00;81.40
3136;DHT22;1578;47.658;9.922;2023-08-01T09:47:03;16.80;80.70
3136;DHT22;1578;47.658;9.922;2023-08-01T09:49:29;16.60;87.00
3136;DHT22;1578;47.658;9.922;2023-08-01T09:51:55;16.50;89.30
3136;DHT22;1578;47.658;9.922;2023-08-01T09:54:22;16.50;90.90
3136;DHT22;1578;47.658;9.922;2023-08-01T09:56:49;16.50;92.40
3136;DHT22;1578;47.658;9.922;2023-08-01T09:59:21;16.30;92.30
3136;DHT22;1578;47.658;9.922;2023-08-01T10:01:49;16.20;93.30
3136;DHT22;1578;47.658;9.922;2023-08-01T10:04:29;16.10;93.60
3136;DHT22;1578;47.658;9.922;2023-08-01T10:07:04;16.10;95.70
3136;DHT22;1578;47.658;9.922;2023-08-01T10:09:32;16.10;95.50
3136;DHT22;1578;47.658;9.922;2023-08-01T10:11:59;16.10;96.80
3136;DHT22;1578;47.658;9.922;2023-08-01T10:14:26;16.10;96.90
3136;DHT22;1578;47.658;9.922;2023-08-01T10:16:52;16.10;97.40
3136;DHT22;1578;47.658;9.922;2023-08-01T10:19:19;16.20;95.90
3136;DHT22;1578;47.658;9.922;2023-08-01T10:21:47;16.20;96.30
3136;DHT22;1578;47.658;9.922;2023-08-01T10:24:14;16.20;96.30
3136;DHT22;1578;47.658;9.922;2023-08-01T10:26:40;16.20;96.80
3136;DHT22;1578;47.658;9.922;2023-08-01T10:29:06;16.10;96.00
3136;DHT22;1578;47.658;9.922;2023-08-01T10:31:32;16.00;96.90
3136;DHT22;1578;47.658;9.922;2023-08-01T10:34:06;16.20;96.00
3136;DHT22;1578;47.658;9.922;2023-08-01T10:36:32;16.10;95.30
3136;DHT22;1578;47.658;9.922;2023-08-01T10:39:00;16.00;96.00
3136;DHT22;1578;47.658;9.922;2023-08-01T10:41:35;16.00;97.40
3136;DHT22;1578;47.658;9.922;2023-08-01T10:44:22;15.90;97.20
3136;DHT22;1578;47.658;9.922;2023-08-01T10:47:27;15.90;98.20
3136;DHT22;1578;47.658;9.922;2023-08-01T10:49:53;15.70;97.90
3136;DHT22;1578;47.658;9.922;2023-08-01T10:52:20;15.80;99.00
3136;DHT22;1578;47.658;9.922;2023-08-01T10:55:00;15.80;97.70
3136;DHT22;1578;47.658;9.922;2023-08-01T10:57:27;15.80;99.00
3136;DHT22;1578;47.658;9.922;2023-08-01T10:59:55;15.80;98.40
3136;DHT22;1578;47.658;9.922;2023-08-01T11:02:26;15.90;99.10
3136;DHT22;1578;47.658;9.922;2023-08-01T11:05:01;16.00;99.90
3136;DHT22;1578;47.658;9.922;2023-08-01T11:07:27;16.20;99.90
3136;DHT22;1578;47.658;9.922;2023-08-01T11:10:24;16.30;98.20
3136;DHT22;1578;47.658;9.922;2023-08-01T11:12:50;16.40;96.30
3136;DHT22;1578;47.658;9.922;2023-08-01T11:15:15;16.30;97.90
3136;DHT22;1578;47.658;9.922;2023-08-01T11:17:53;16.40;98.70
3136;DHT22;1578;47.658;9.922;2023-08-01T11:20:22;16.50;98.30
3136;DHT22;1578;47.658;9.922;2023-08-01T11:25:16;16.90;99.10
3136;DHT22;1578;47.658;9.922;2023-08-01T11:27:42;17.10;95.00
3136;DHT22;1578;47.658;9.922;2023-08-01T11:30:07;17.10;98.80
3136;DHT22;1578;47.658;9.922;2023-08-01T11:32:35;17.30;96.60
3136;DHT22;1578;47.658;9.922;2023-08-01T11:35:02;17.50;94.20
3136;DHT22;1578;47.658;9.922;2023-08-01T11:37:30;17.60;94.30
3136;DHT22;1578;47.658;9.922;2023-08-01T11:39:56;17.70;95.80
3136;DHT22;1578;47.658;9.922;2023-08-01T11:42:23;17.70;91.80
3136;DHT22;1578;47.658;9.922;2023-08-01T11:44:48;17.60;95.10
3136;DHT22;1578;47.658;9.922;2023-08-01T11:47:15;17.50;93.70
3136;DHT22;1578;47.658;9.922;2023-08-01T11:49:49;17.50;93.60
3136;DHT22;1578;47.658;9.922;2023-08-01T11:52:27;17.50;94.80
3136;DHT22;1578;47.658;9.922;2023-08-01T11:54:53;17.40;94.50
3136;DHT22;1578;47.658;9.922;2023-08-01T11:57:23;17.30;93.70
3136;DHT22;1578;47.658;9.922;2023-08-01T11:59:53;17.30;95.50
3136;DHT22;1578;47.658;9.922;2023-08-01T12:02:26;17.20;96.40
3136;DHT22;1578;47.658;9.922;2023-08-01T12:04:53;17.20;91.90
3136;DHT22;1578;47.658;9.922;2023-08-01T12:07:19;17.10;94.20
3136;DHT22;1578;47.658;9.922;2023-08-01T12:09:55;17.20;97.30
3136;DHT22;1578;47.658;9.922;2023-08-01T12:12:22;17.20;93.90
3136;DHT22;1578;47.658;9.922;2023-08-01T12:14:47;17.40;95.90
3136;DHT22;1578;47.658;9.922;2023-08-01T12:17:13;17.60;95.30
3136;DHT22;1578;47.658;9.922;2023-08-01T12:19:38;17.70;93.60
3136;DHT22;1578;47.658;9.922;2023-08-01T12:22:04;17.70;92.10
3136;DHT22;1578;47.658;9.922;2023-08-01T12:24:30;17.50;92.10
3136;DHT22;1578;47.658;9.922;2023-08-01T12:26:55;17.70;95.70
3136;DHT22;1578;47.658;9.922;2023-08-01T12:29:21;17.90;91.50
3136;DHT22;1578;47.658;9.922;2023-08-01T12:31:46;18.00;89.70
3136;DHT22;1578;47.658;9.922;2023-08-01T12:34:12;17.80;91.40
3136;DHT22;1578;47.658;9.922;2023-08-01T12:36:38;17.80;92.50
3136;DHT22;1578;47.658;9.922;2023-08-01T12:39:03;17.80;91.10
3136;DHT22;1578;47.658;9.922;2023-08-01T12:41:30;17.90;91.90
3136;DHT22;1578;47.658;9.922;2023-08-01T12:43:56;18.20;94.30
3136;DHT22;1578;47.658;9.922;2023-08-01T12:46:21;18.50;85.40
3136;DHT22;1578;47.658;9.922;2023-08-01T12:48:47;18.80;81.80
3136;DHT22;1578;47.658;9.922;2023-08-01T12:51:12;18.80;90.60
3136;DHT22;1578;47.658;9.922;2023-08-01T12:53:39;19.30;79.40
3136;DHT22;1578;47.658;9.922;2023-08-01T12:56:05;20.00;74.00
3136;DHT22;1578;47.658;9.922;2023-08-01T12:58:31;19.90;70.60
3136;DHT22;1578;47.658;9.922;2023-08-01T13:00:57;19.40;66.50
3136;DHT22;1578;47.658;9.922;2023-08-01T13:03:22;19.20;74.30
3136;DHT22;1578;47.658;9.922;2023-08-01T13:05:48;19.70;74.20
3136;DHT22;1578;47.658;9.922;2023-08-01T13:08:14;20.50;52.50
3136;DHT22;1578;47.658;9.922;2023-08-01T13:10:39;20.10;65.20
3136;DHT22;1578;47.658;9.922;2023-08-01T13:13:05;20.10;64.60
3136;DHT22;1578;47.658;9.922;2023-08-01T13:15:31;19.70;60.00
3136;DHT22;1578;47.658;9.922;2023-08-01T13:17:57;19.50;68.20
3136;DHT22;1578;47.658;9.922;2023-08-01T13:20:22;19.80;71.80
3136;DHT22;1578;47.658;9.922;2023-08-01T13:22:51;20.00;60.70
3136;DHT22;1578;47.658;9.922;2023-08-01T13:25:18;20.00;68.40
3136;DHT22;1578;47.658;9.922;2023-08-01T13:27:44;19.90;59.30
3136;DHT22;1578;47.658;9.922;2023-08-01T13:30:10;19.90;59.20
3136;DHT22;1578;47.658;9.922;2023-08-01T13:32:36;19.60;59.90
3136;DHT22;1578;47.658;9.922;2023-08-01T13:35:02;19.60;63.60
3136;DHT22;1578;47.658;9.922;2023-08-01T13:37:27;19.80;64.90
3136;DHT22;1578;47.658;9.922;2023-08-01T13:39:56;19.90;58.40
3136;DHT22;1578;47.658;9.922;2023-08-01T13:42:21;20.10;59.40
3136;DHT22;1578;47.658;9.922;2023-08-01T13:44:47;19.90;50.80
3136;DHT22;1578;47.658;9.922;2023-08-01T13:47:13;19.50;58.70
3136;DHT22;1578;47.658;9.922;2023-08-01T13:49:38;19.60;62.00
3136;DHT22;1578;47.658;9.922;2023-08-01T13:52:04;19.60;58.00
3136;DHT22;1578;47.658;9.922;2023-08-01T13:54:30;19.40;55.60
3136;DHT22;1578;47.658;9.922;2023-08-01T13:56:56;19.40;61.00
3136;DHT22;1578;47.658;9.922;2023-08-01T13:59:22;19.30;57.70
3136;DHT22;1578;47.658;9.922;2023-08-01T14:01:48;19.30;72.50
3136;DHT22;1578;47.658;9.922;2023-08-01T14:04:14;18.80;62.90
3136;DHT22;1578;47.658;9.922;2023-08-01T14:06:40;18.70;64.50
3136;DHT22;1578;47.658;9.922;2023-08-01T14:09:09;18.60;68.00
3136;DHT22;1578;47.658;9.922;2023-08-01T14:11:36;18.60;67.90
3136;DHT22;1578;47.658;9.922;2023-08-01T14:14:01;18.40;75.40
3136;DHT22;1578;47.658;9.922;2023-08-01T14:16:29;18.30;72.60
3136;DHT22;1578;47.658;9.922;2023-08-01T14:18:55;18.10;79.30
3136;DHT22;1578;47.658;9.922;2023-08-01T14:21:21;18.00;81.80
3136;DHT22;1578;47.658;9.922;2023-08-01T14:23:47;17.90;86.20
3136;DHT22;1578;47.658;9.922;2023-08-01T14:26:13;18.00;82.50
3136;DHT22;1578;47.658;9.922;2023-08-01T14:28:38;18.10;88.20
3136;DHT22;1578;47.658;9.922;2023-08-01T14:31:04;18.20;79.20
3136;DHT22;1578;47.658;9.922;2023-08-01T14:33:30;18.10;85.40
3136;DHT22;1578;47.658;9.922;2023-08-01T14:35:56;18.10;81.10
3136;DHT22;1578;47.658;9.922;2023-08-01T14:38:22;18.20;79.10
3136;DHT22;1578;47.658;9.922;2023-08-01T14:40:47;18.20;84.60
3136;DHT22;1578;47.658;9.922;2023-08-01T14:43:13;18.20;81.30
3136;DHT22;1578;47.658;9.922;2023-08-01T14:45:41;18.10;81.30
3136;DHT22;1578;47.658;9.922;2023-08-01T14:48:07;18.20;81.40
3136;DHT22;1578;47.658;9.922;2023-08-01T14:50:33;18.40;80.20
3136;DHT22;1578;47.658;9.922;2023-08-01T14:53:01;18.50;75.60
3136;DHT22;1578;47.658;9.922;2023-08-01T14:55:32;18.40;76.40
3136;DHT22;1578;47.658;9.922;2023-08-01T14:57:58;18.40;81.00
3136;DHT22;1578;47.658;9.922;2023-08-01T15:00:23;18.40;80.40
3136;DHT22;1578;47.658;9.922;2023-08-01T15:02:49;18.40;78.90
3136;DHT22;1578;47.658;9.922;2023-08-01T15:05:15;18.20;86.30
3136;DHT22;1578;47.658;9.922;2023-08-01T15:07:41;18.30;86.30
3136;DHT22;1578;47.658;9.922;2023-08-01T15:10:07;18.50;86.00
3136;DHT22;1578;47.658;9.922;2023-08-01T15:12:32;18.60;89.10
3136;DHT22;1578;47.658;9.922;2023-08-01T15:14:58;18.80;80.60
3136;DHT22;1578;47.658;9.922;2023-08-01T15:17:24;18.80;82.10
3136;DHT22;1578;47.658;9.922;2023-08-01T15:19:50;18.60;82.40
3136;DHT22;1578;47.658;9.922;2023-08-01T15:22:17;18.60;73.10
3136;DHT22;1578;47.658;9.922;2023-08-01T15:24:43;18.60;77.80
3136;DHT22;1578;47.658;9.922;2023-08-01T15:27:10;18.60;72.50
3136;DHT22;1578;47.658;9.922;2023-08-01T15:29:36;18.40;81.90
3136;DHT22;1578;47.658;9.922;2023-08-01T15:32:02;18.40;84.40
3136;DHT22;1578;47.658;9.922;2023-08-01T15:34:28;18.30;82.70
3136;DHT22;1578;47.658;9.922;2023-08-01T15:36:53;18.10;79.80
3136;DHT22;1578;47.658;9.922;2023-08-01T15:39:19;17.90;88.20
3136;DHT22;1578;47.658;9.922;2023-08-01T15:41:46;17.80;90.50
3136;DHT22;1578;47.658;9.922;2023-08-01T15:44:12;17.80;89.90
3136;DHT22;1578;47.658;9.922;2023-08-01T15:46:38;17.60;83.30
3136;DHT22;1578;47.658;9.922;2023-08-01T15:49:04;17.50;87.80
3136;DHT22;1578;47.658;9.922;2023-08-01T15:51:31;17.40;90.70
3136;DHT22;1578;47.658;9.922;2023-08-01T15:53:57;17.40;89.20
3136;DHT22;1578;47.658;9.922;2023-08-01T15:56:23;17.40;84.70
3136;DHT22;1578;47.658;9.922;2023-08-01T15:58:48;17.30;88.50
3136;DHT22;1578;47.658;9.922;2023-08-01T16:01:14;17.40;88.30